KDIK/DIK METAR and TAF weather

Enter ICAO airport designator
Station Type Date Time Source
KDIK METAR 2018/10/19 14:56 UTC NOAA

KDIK 191456Z AUTO 32012KT 10SM CLR 08/M01 A3016 RMK AO2 SLP225 T00781006 51033


Station Type Date Time Source
KDIK Decoded METAR 2018/10/19 14:56 UTC NOAA

THEODORE ROOSEVELT REGIONAL, ND, United States (KDIK) 46-48N 102-48W 788M
Oct 19, 2018 - 10:56 AM EDT / 2018.10.19 1456 UTC
Wind: from the NW (320 degrees) at 14 MPH (12 KT):0
Visibility: 10 mile(s):0
Sky conditions: clear
Temperature: 46.0 F (7.8 C)
Dew Point: 30.9 F (-0.6 C)
Relative Humidity: 55%
Pressure (altimeter): 30.16 in. Hg (1021 hPa)
Pressure tendency: 0.10 inches (3.3 hPa) higher than three hours ago
ob: KDIK 191456Z AUTO 32012KT 10SM CLR 08/M01 A3016 RMK AO2 SLP225 T00781006 51033
cycle: 15

Station Type Date Time Source
KDIK TAF 2018/10/19 12:39 UTC NOAA

TAF KDIK 191137Z 1912/2012 31012G19KT P6SM BKN150
FM191700 31018G28KT P6SM SKC
FM200000 31012G20KT P6SM SKC
FM200200 30009KT P6SM SKC


Example: see airport list